sensor_id;sensor_type;location;lat;lon;timestamp;temperature;humidity
14908;DHT22;7545;52.092;7.006;2023-05-07T00:01:56;16.20;99.90
14908;DHT22;7545;52.092;7.006;2023-05-07T00:04:22;16.10;99.90
14908;DHT22;7545;52.092;7.006;2023-05-07T00:06:47;16.10;99.90
14908;DHT22;7545;52.092;7.006;2023-05-07T00:09:13;16.10;99.90
14908;DHT22;7545;52.092;7.006;2023-05-07T00:11:39;16.10;99.90
14908;DHT22;7545;52.092;7.006;2023-05-07T00:14:05;16.10;99.90
14908;DHT22;7545;52.092;7.006;2023-05-07T00:16:31;16.10;99.90
14908;DHT22;7545;52.092;7.006;2023-05-07T00:18:57;16.10;99.90
14908;DHT22;7545;52.092;7.006;2023-05-07T00:21:22;16.10;99.90
14908;DHT22;7545;52.092;7.006;2023-05-07T00:23:52;16.10;99.90
14908;DHT22;7545;52.092;7.006;2023-05-07T00:26:18;16.10;99.90
14908;DHT22;7545;52.092;7.006;2023-05-07T00:28:43;16.10;99.90
14908;DHT22;7545;52.092;7.006;2023-05-07T00:31:09;16.10;99.90
14908;DHT22;7545;52.092;7.006;2023-05-07T00:33:35;16.00;99.90
14908;DHT22;7545;52.092;7.006;2023-05-07T00:36:00;16.00;99.90
14908;DHT22;7545;52.092;7.006;2023-05-07T00:38:27;16.00;99.90
14908;DHT22;7545;52.092;7.006;2023-05-07T00:40:52;16.00;99.90
14908;DHT22;7545;52.092;7.006;2023-05-07T00:43:18;16.00;99.90
14908;DHT22;7545;52.092;7.006;2023-05-07T00:45:44;16.00;99.90
14908;DHT22;7545;52.092;7.006;2023-05-07T00:48:10;16.00;99.90
14908;DHT22;7545;52.092;7.006;2023-05-07T00:50:35;16.00;99.90
14908;DHT22;7545;52.092;7.006;2023-05-07T00:53:01;15.90;99.90
14908;DHT22;7545;52.092;7.006;2023-05-07T00:55:27;16.00;99.90
14908;DHT22;7545;52.092;7.006;2023-05-07T00:57:53;16.00;99.90
14908;DHT22;7545;52.092;7.006;2023-05-07T01:00:19;16.00;99.90
14908;DHT22;7545;52.092;7.006;2023-05-07T01:02:45;15.90;99.90
14908;DHT22;7545;52.092;7.006;2023-05-07T01:05:14;15.90;99.90
14908;DHT22;7545;52.092;7.006;2023-05-07T01:07:42;15.90;99.90
14908;DHT22;7545;52.092;7.006;2023-05-07T01:10:08;15.90;99.90
14908;DHT22;7545;52.092;7.006;2023-05-07T01:12:36;16.00;99.90
14908;DHT22;7545;52.092;7.006;2023-05-07T01:15:03;15.90;99.90
14908;DHT22;7545;52.092;7.006;2023-05-07T01:17:34;15.90;99.90
14908;DHT22;7545;52.092;7.006;2023-05-07T01:20:00;16.00;99.90
14908;DHT22;7545;52.092;7.006;2023-05-07T01:22:33;15.90;99.90
14908;DHT22;7545;52.092;7.006;2023-05-07T01:25:00;15.80;99.90
14908;DHT22;7545;52.092;7.006;2023-05-07T01:27:27;15.90;99.90
14908;DHT22;7545;52.092;7.006;2023-05-07T01:29:52;15.90;99.90
14908;DHT22;7545;52.092;7.006;2023-05-07T01:34:57;15.80;99.90
14908;DHT22;7545;52.092;7.006;2023-05-07T01:37:25;15.70;99.90
14908;DHT22;7545;52.092;7.006;2023-05-07T01:39:52;15.90;99.90
14908;DHT22;7545;52.092;7.006;2023-05-07T01:42:17;15.80;99.90
14908;DHT22;7545;52.092;7.006;2023-05-07T01:44:43;15.80;99.90
14908;DHT22;7545;52.092;7.006;2023-05-07T01:47:09;15.80;99.90
14908;DHT22;7545;52.092;7.006;2023-05-07T01:49:35;15.90;99.90
14908;DHT22;7545;52.092;7.006;2023-05-07T01:52:01;15.80;99.90
14908;DHT22;7545;52.092;7.006;2023-05-07T01:54:27;15.80;99.90
14908;DHT22;7545;52.092;7.006;2023-05-07T01:56:53;15.80;99.90
14908;DHT22;7545;52.092;7.006;2023-05-07T01:59:19;15.80;99.90
14908;DHT22;7545;52.092;7.006;2023-05-07T02:01:44;15.80;99.90
14908;DHT22;7545;52.092;7.006;2023-05-07T02:04:10;15.80;99.90
14908;DHT22;7545;52.092;7.006;2023-05-07T02:06:36;15.80;99.90
14908;DHT22;7545;52.092;7.006;2023-05-07T02:09:01;15.80;99.90
14908;DHT22;7545;52.092;7.006;2023-05-07T02:11:27;15.80;99.90
14908;DHT22;7545;52.092;7.006;2023-05-07T02:13:52;15.80;99.90
14908;DHT22;7545;52.092;7.006;2023-05-07T02:16:18;15.70;99.90
14908;DHT22;7545;52.092;7.006;2023-05-07T02:18:45;15.70;99.90
14908;DHT22;7545;52.092;7.006;2023-05-07T02:21:10;15.70;99.90
14908;DHT22;7545;52.092;7.006;2023-05-07T02:23:36;15.60;99.90
14908;DHT22;7545;52.092;7.006;2023-05-07T02:26:01;15.70;99.90
14908;DHT22;7545;52.092;7.006;2023-05-07T02:28:27;15.60;99.90
14908;DHT22;7545;52.092;7.006;2023-05-07T02:30:53;15.60;99.90
14908;DHT22;7545;52.092;7.006;2023-05-07T02:33:18;15.60;99.90
14908;DHT22;7545;52.092;7.006;2023-05-07T02:35:44;15.60;99.90
14908;DHT22;7545;52.092;7.006;2023-05-07T02:38:09;15.60;99.90
14908;DHT22;7545;52.092;7.006;2023-05-07T02:40:36;15.60;99.90
14908;DHT22;7545;52.092;7.006;2023-05-07T02:43:04;15.60;99.90
14908;DHT22;7545;52.092;7.006;2023-05-07T02:45:31;15.60;99.90
14908;DHT22;7545;52.092;7.006;2023-05-07T02:47:58;15.60;99.90
14908;DHT22;7545;52.092;7.006;2023-05-07T02:50:23;15.60;99.90
14908;DHT22;7545;52.092;7.006;2023-05-07T02:52:49;15.60;99.90
14908;DHT22;7545;52.092;7.006;2023-05-07T02:55:15;15.60;99.90
14908;DHT22;7545;52.092;7.006;2023-05-07T02:57:41;15.50;99.90
14908;DHT22;7545;52.092;7.006;2023-05-07T03:00:11;15.50;99.90
14908;DHT22;7545;52.092;7.006;2023-05-07T03:02:37;15.50;99.90
14908;DHT22;7545;52.092;7.006;2023-05-07T03:05:02;15.50;99.90
14908;DHT22;7545;52.092;7.006;2023-05-07T03:07:28;15.50;99.90
14908;DHT22;7545;52.092;7.006;2023-05-07T03:09:54;15.40;99.90
14908;DHT22;7545;52.092;7.006;2023-05-07T03:12:20;15.40;99.90
14908;DHT22;7545;52.092;7.006;2023-05-07T03:14:46;15.40;99.90
14908;DHT22;7545;52.092;7.006;2023-05-07T03:17:11;15.40;99.90
14908;DHT22;7545;52.092;7.006;2023-05-07T03:19:37;15.40;99.90
14908;DHT22;7545;52.092;7.006;2023-05-07T03:22:02;15.30;99.90
14908;DHT22;7545;52.092;7.006;2023-05-07T03:24:28;15.30;99.90
14908;DHT22;7545;52.092;7.006;2023-05-07T03:26:54;15.30;99.90
14908;DHT22;7545;52.092;7.006;2023-05-07T03:29:19;15.30;99.90
14908;DHT22;7545;52.092;7.006;2023-05-07T03:31:45;15.30;99.90
14908;DHT22;7545;52.092;7.006;2023-05-07T03:34:10;15.20;99.90
14908;DHT22;7545;52.092;7.006;2023-05-07T03:36:36;15.20;99.90
14908;DHT22;7545;52.092;7.006;2023-05-07T03:39:02;15.20;99.90
14908;DHT22;7545;52.092;7.006;2023-05-07T03:41:27;15.10;99.90
14908;DHT22;7545;52.092;7.006;2023-05-07T03:43:54;15.10;99.90
14908;DHT22;7545;52.092;7.006;2023-05-07T03:46:20;15.10;99.90
14908;DHT22;7545;52.092;7.006;2023-05-07T03:48:46;15.10;99.90
14908;DHT22;7545;52.092;7.006;2023-05-07T03:51:11;15.00;99.90
14908;DHT22;7545;52.092;7.006;2023-05-07T03:53:37;15.00;99.90
14908;DHT22;7545;52.092;7.006;2023-05-07T03:56:03;15.00;99.90
14908;DHT22;7545;52.092;7.006;2023-05-07T03:58:28;15.00;99.90
14908;DHT22;7545;52.092;7.006;2023-05-07T04:00:54;15.00;99.90
14908;DHT22;7545;52.092;7.006;2023-05-07T04:03:19;14.90;99.90
14908;DHT22;7545;52.092;7.006;2023-05-07T04:05:45;14.90;99.90
14908;DHT22;7545;52.092;7.006;2023-05-07T04:08:11;14.90;99.90
14908;DHT22;7545;52.092;7.006;2023-05-07T04:10:36;14.90;99.90
14908;DHT22;7545;52.092;7.006;2023-05-07T04:13:02;14.80;99.90
14908;DHT22;7545;52.092;7.006;2023-05-07T04:15:27;14.80;99.90
14908;DHT22;7545;52.092;7.006;2023-05-07T04:17:53;14.80;99.90
14908;DHT22;7545;52.092;7.006;2023-05-07T04:20:18;14.80;99.90
14908;DHT22;7545;52.092;7.006;2023-05-07T04:22:45;14.70;99.90
14908;DHT22;7545;52.092;7.006;2023-05-07T04:25:10;14.70;99.90
14908;DHT22;7545;52.092;7.006;2023-05-07T04:27:36;14.70;99.90
14908;DHT22;7545;52.092;7.006;2023-05-07T04:30:02;14.70;99.90
14908;DHT22;7545;52.092;7.006;2023-05-07T04:32:29;14.70;99.90
14908;DHT22;7545;52.092;7.006;2023-05-07T04:34:55;14.70;99.90
14908;DHT22;7545;52.092;7.006;2023-05-07T04:37:21;14.70;99.90
14908;DHT22;7545;52.092;7.006;2023-05-07T04:39:47;14.60;99.90
14908;DHT22;7545;52.092;7.006;2023-05-07T04:42:16;14.60;99.90
14908;DHT22;7545;52.092;7.006;2023-05-07T04:44:43;14.60;99.90
14908;DHT22;7545;52.092;7.006;2023-05-07T04:47:09;14.70;99.90
14908;DHT22;7545;52.092;7.006;2023-05-07T04:49:35;14.70;99.90
14908;DHT22;7545;52.092;7.006;2023-05-07T04:52:00;14.70;99.90
14908;DHT22;7545;52.092;7.006;2023-05-07T04:54:26;14.70;99.90
14908;DHT22;7545;52.092;7.006;2023-05-07T04:56:52;14.70;99.90
14908;DHT22;7545;52.092;7.006;2023-05-07T04:59:17;14.70;99.90
14908;DHT22;7545;52.092;7.006;2023-05-07T05:01:43;14.70;99.90
14908;DHT22;7545;52.092;7.006;2023-05-07T05:04:09;14.70;99.90
14908;DHT22;7545;52.092;7.006;2023-05-07T05:06:35;14.80;99.90
14908;DHT22;7545;52.092;7.006;2023-05-07T05:09:01;14.80;99.90
14908;DHT22;7545;52.092;7.006;2023-05-07T05:11:26;14.80;99.90
14908;DHT22;7545;52.092;7.006;2023-05-07T05:13:52;14.80;99.90
14908;DHT22;7545;52.092;7.006;2023-05-07T05:16:18;14.80;99.90
14908;DHT22;7545;52.092;7.006;2023-05-07T05:18:43;14.80;99.90
14908;DHT22;7545;52.092;7.006;2023-05-07T05:21:09;14.80;99.90
14908;DHT22;7545;52.092;7.006;2023-05-07T05:23:34;14.80;99.90
14908;DHT22;7545;52.092;7.006;2023-05-07T05:26:00;14.80;99.90
14908;DHT22;7545;52.092;7.006;2023-05-07T05:28:25;14.90;99.90
14908;DHT22;7545;52.092;7.006;2023-05-07T05:30:52;14.80;99.90
14908;DHT22;7545;52.092;7.006;2023-05-07T05:33:18;14.80;99.90
14908;DHT22;7545;52.092;7.006;2023-05-07T05:35:44;14.80;99.90
14908;DHT22;7545;52.092;7.006;2023-05-07T05:38:10;14.80;99.90
14908;DHT22;7545;52.092;7.006;2023-05-07T05:40:35;14.80;99.90
14908;DHT22;7545;52.092;7.006;2023-05-07T05:43:01;14.80;99.90
14908;DHT22;7545;52.092;7.006;2023-05-07T05:45:26;14.80;99.90
14908;DHT22;7545;52.092;7.006;2023-05-07T05:47:52;14.90;99.90
14908;DHT22;7545;52.092;7.006;2023-05-07T05:50:18;14.90;99.90
14908;DHT22;7545;52.092;7.006;2023-05-07T05:52:43;14.90;99.90
14908;DHT22;7545;52.092;7.006;2023-05-07T05:55:09;14.90;99.90
14908;DHT22;7545;52.092;7.006;2023-05-07T05:57:35;14.90;99.90
14908;DHT22;7545;52.092;7.006;2023-05-07T06:00:02;15.00;99.90
14908;DHT22;7545;52.092;7.006;2023-05-07T06:02:28;15.00;99.90
14908;DHT22;7545;52.092;7.006;2023-05-07T06:04:53;15.00;99.90
14908;DHT22;7545;52.092;7.006;2023-05-07T06:07:19;15.00;99.90
14908;DHT22;7545;52.092;7.006;2023-05-07T06:09:45;15.00;99.90
14908;DHT22;7545;52.092;7.006;2023-05-07T06:12:11;15.10;99.90
14908;DHT22;7545;52.092;7.006;2023-05-07T06:14:36;15.10;99.90
14908;DHT22;7545;52.092;7.006;2023-05-07T06:17:02;15.10;99.90
14908;DHT22;7545;52.092;7.006;2023-05-07T06:19:28;15.20;99.90
14908;DHT22;7545;52.092;7.006;2023-05-07T06:21:53;15.20;99.90
14908;DHT22;7545;52.092;7.006;2023-05-07T06:24:19;15.20;99.90
14908;DHT22;7545;52.092;7.006;2023-05-07T06:26:45;15.20;99.90
14908;DHT22;7545;52.092;7.006;2023-05-07T06:29:10;15.30;99.90
14908;DHT22;7545;52.092;7.006;2023-05-07T06:31:36;15.30;99.90
14908;DHT22;7545;52.092;7.006;2023-05-07T06:34:02;15.30;99.90
14908;DHT22;7545;52.092;7.006;2023-05-07T06:36:28;15.40;99.90
14908;DHT22;7545;52.092;7.006;2023-05-07T06:38:53;15.40;99.90
14908;DHT22;7545;52.092;7.006;2023-05-07T06:41:20;15.40;99.90
14908;DHT22;7545;52.092;7.006;2023-05-07T06:43:45;15.50;99.90
14908;DHT22;7545;52.092;7.006;2023-05-07T06:46:11;15.50;99.90
14908;DHT22;7545;52.092;7.006;2023-05-07T06:48:37;15.50;99.90
14908;DHT22;7545;52.092;7.006;2023-05-07T06:51:02;15.50;99.90
14908;DHT22;7545;52.092;7.006;2023-05-07T06:53:28;15.50;99.90
14908;DHT22;7545;52.092;7.006;2023-05-07T06:55:56;15.60;99.90
14908;DHT22;7545;52.092;7.006;2023-05-07T06:58:21;15.60;99.90
14908;DHT22;7545;52.092;7.006;2023-05-07T07:00:47;15.60;99.90
14908;DHT22;7545;52.092;7.006;2023-05-07T07:03:13;15.70;99.90
14908;DHT22;7545;52.092;7.006;2023-05-07T07:05:40;15.70;99.90
14908;DHT22;7545;52.092;7.006;2023-05-07T07:08:06;15.80;99.90
14908;DHT22;7545;52.092;7.006;2023-05-07T07:10:31;15.80;99.90
14908;DHT22;7545;52.092;7.006;2023-05-07T07:12:57;15.80;99.90
14908;DHT22;7545;52.092;7.006;2023-05-07T07:15:23;15.80;99.90
14908;DHT22;7545;52.092;7.006;2023-05-07T07:17:50;15.90;99.90
14908;DHT22;7545;52.092;7.006;2023-05-07T07:20:16;15.90;99.90
14908;DHT22;7545;52.092;7.006;2023-05-07T07:22:41;15.90;99.90
14908;DHT22;7545;52.092;7.006;2023-05-07T07:25:08;15.90;99.90
14908;DHT22;7545;52.092;7.006;2023-05-07T07:27:33;15.90;99.90
14908;DHT22;7545;52.092;7.006;2023-05-07T07:29:59;16.00;99.90
14908;DHT22;7545;52.092;7.006;2023-05-07T07:32:25;16.00;99.90
14908;DHT22;7545;52.092;7.006;2023-05-07T07:34:51;16.00;99.90
14908;DHT22;7545;52.092;7.006;2023-05-07T07:37:16;16.00;99.90
14908;DHT22;7545;52.092;7.006;2023-05-07T07:39:42;16.10;99.90
14908;DHT22;7545;52.092;7.006;2023-05-07T07:42:07;16.10;99.90
14908;DHT22;7545;52.092;7.006;2023-05-07T07:44:33;16.10;99.90
14908;DHT22;7545;52.092;7.006;2023-05-07T07:46:59;16.20;99.90
14908;DHT22;7545;52.092;7.006;2023-05-07T07:49:24;16.20;99.90
14908;DHT22;7545;52.092;7.006;2023-05-07T07:51:50;16.30;99.90
14908;DHT22;7545;52.092;7.006;2023-05-07T07:54:16;16.30;99.90
14908;DHT22;7545;52.092;7.006;2023-05-07T07:56:42;16.30;99.90
14908;DHT22;7545;52.092;7.006;2023-05-07T07:59:07;16.30;99.90
14908;DHT22;7545;52.092;7.006;2023-05-07T08:01:33;16.40;99.90
14908;DHT22;7545;52.092;7.006;2023-05-07T08:03:59;16.40;99.90
14908;DHT22;7545;52.092;7.006;2023-05-07T08:06:24;16.40;99.90
14908;DHT22;7545;52.092;7.006;2023-05-07T08:08:53;16.50;99.90
14908;DHT22;7545;52.092;7.006;2023-05-07T08:11:18;16.50;99.90
14908;DHT22;7545;52.092;7.006;2023-05-07T08:13:44;16.60;99.90
14908;DHT22;7545;52.092;7.006;2023-05-07T08:16:10;16.60;99.90
14908;DHT22;7545;52.092;7.006;2023-05-07T08:18:36;16.70;99.90
14908;DHT22;7545;52.092;7.006;2023-05-07T08:21:02;16.70;99.90
14908;DHT22;7545;52.092;7.006;2023-05-07T08:23:27;16.80;99.90
14908;DHT22;7545;52.092;7.006;2023-05-07T08:25:53;16.80;99.90
14908;DHT22;7545;52.092;7.006;2023-05-07T08:28:19;16.90;99.90
14908;DHT22;7545;52.092;7.006;2023-05-07T08:30:46;16.90;99.90
14908;DHT22;7545;52.092;7.006;2023-05-07T08:33:12;16.90;99.90
14908;DHT22;7545;52.092;7.006;2023-05-07T08:35:37;17.00;99.90
14908;DHT22;7545;52.092;7.006;2023-05-07T08:38:03;17.00;99.90
14908;DHT22;7545;52.092;7.006;2023-05-07T08:40:29;17.00;99.90
14908;DHT22;7545;52.092;7.006;2023-05-07T08:42:57;17.00;99.90
14908;DHT22;7545;52.092;7.006;2023-05-07T08:45:23;17.00;99.90
14908;DHT22;7545;52.092;7.006;2023-05-07T08:47:58;17.10;99.90
14908;DHT22;7545;52.092;7.006;2023-05-07T08:50:24;17.10;99.90
14908;DHT22;7545;52.092;7.006;2023-05-07T08:52:50;17.10;99.90
14908;DHT22;7545;52.092;7.006;2023-05-07T08:55:15;17.20;99.90
14908;DHT22;7545;52.092;7.006;2023-05-07T08:57:41;17.30;99.90
14908;DHT22;7545;52.092;7.006;2023-05-07T09:00:07;17.30;99.90
14908;DHT22;7545;52.092;7.006;2023-05-07T09:02:36;17.40;99.90
14908;DHT22;7545;52.092;7.006;2023-05-07T09:05:02;17.50;99.90
14908;DHT22;7545;52.092;7.006;2023-05-07T09:07:30;17.60;99.90
14908;DHT22;7545;52.092;7.006;2023-05-07T09:09:55;17.70;99.90
14908;DHT22;7545;52.092;7.006;2023-05-07T09:12:22;17.80;99.90
14908;DHT22;7545;52.092;7.006;2023-05-07T09:14:48;17.90;99.90
14908;DHT22;7545;52.092;7.006;2023-05-07T09:17:15;17.90;99.90
14908;DHT22;7545;52.092;7.006;2023-05-07T09:19:41;18.00;99.90
14908;DHT22;7545;52.092;7.006;2023-05-07T09:22:08;18.10;99.90
14908;DHT22;7545;52.092;7.006;2023-05-07T09:24:34;18.10;99.90
14908;DHT22;7545;52.092;7.006;2023-05-07T09:27:03;18.20;99.90
14908;DHT22;7545;52.092;7.006;2023-05-07T09:29:29;18.30;99.90
14908;DHT22;7545;52.092;7.006;2023-05-07T09:31:56;18.40;99.90
14908;DHT22;7545;52.092;7.006;2023-05-07T09:34:21;18.40;99.90
14908;DHT22;7545;52.092;7.006;2023-05-07T09:36:47;18.50;99.90
14908;DHT22;7545;52.092;7.006;2023-05-07T09:39:13;18.50;99.90
14908;DHT22;7545;52.092;7.006;2023-05-07T09:41:46;18.60;99.90
14908;DHT22;7545;52.092;7.006;2023-05-07T09:44:15;18.60;99.90
14908;DHT22;7545;52.092;7.006;2023-05-07T09:46:44;18.70;99.90
14908;DHT22;7545;52.092;7.006;2023-05-07T09:49:22;18.80;99.90
14908;DHT22;7545;52.092;7.006;2023-05-07T09:51:49;18.90;99.90
14908;DHT22;7545;52.092;7.006;2023-05-07T09:54:16;19.00;99.90
14908;DHT22;7545;52.092;7.006;2023-05-07T09:56:43;19.10;99.90
14908;DHT22;7545;52.092;7.006;2023-05-07T09:59:13;19.20;99.90
14908;DHT22;7545;52.092;7.006;2023-05-07T10:01:41;19.30;99.90
14908;DHT22;7545;52.092;7.006;2023-05-07T10:04:07;19.40;99.90
14908;DHT22;7545;52.092;7.006;2023-05-07T10:06:35;19.50;99.90
14908;DHT22;7545;52.092;7.006;2023-05-07T10:09:01;19.50;99.90
14908;DHT22;7545;52.092;7.006;2023-05-07T10:11:26;19.60;99.90
14908;DHT22;7545;52.092;7.006;2023-05-07T10:13:53;19.70;99.90
14908;DHT22;7545;52.092;7.006;2023-05-07T10:16:19;19.80;99.90
14908;DHT22;7545;52.092;7.006;2023-05-07T10:18:46;19.90;99.90
14908;DHT22;7545;52.092;7.006;2023-05-07T10:21:20;20.00;99.90
14908;DHT22;7545;52.092;7.006;2023-05-07T10:23:49;20.10;99.90
14908;DHT22;7545;52.092;7.006;2023-05-07T10:26:17;20.10;99.90
14908;DHT22;7545;52.092;7.006;2023-05-07T10:28:45;20.10;99.90
14908;DHT22;7545;52.092;7.006;2023-05-07T10:34:00;20.30;99.90
14908;DHT22;7545;52.092;7.006;2023-05-07T10:36:28;20.40;99.90
14908;DHT22;7545;52.092;7.006;2023-05-07T10:38:54;20.50;99.90
14908;DHT22;7545;52.092;7.006;2023-05-07T10:41:20;20.50;99.90
14908;DHT22;7545;52.092;7.006;2023-05-07T10:43:46;20.70;99.90
14908;DHT22;7545;52.092;7.006;2023-05-07T10:46:18;20.70;99.90
14908;DHT22;7545;52.092;7.006;2023-05-07T10:51:35;20.90;99.90
14908;DHT22;7545;52.092;7.006;2023-05-07T10:56:38;21.10;99.90
14908;DHT22;7545;52.092;7.006;2023-05-07T11:01:50;21.30;99.90
14908;DHT22;7545;52.092;7.006;2023-05-07T11:04:17;21.30;99.90
14908;DHT22;7545;52.092;7.006;2023-05-07T11:15:09;21.60;99.90
14908;DHT22;7545;52.092;7.006;2023-05-07T11:17:52;21.70;99.90
14908;DHT22;7545;52.092;7.006;2023-05-07T11:20:18;21.70;99.90
14908;DHT22;7545;52.092;7.006;2023-05-07T11:22:44;21.70;99.90
14908;DHT22;7545;52.092;7.006;2023-05-07T11:25:09;21.70;99.90
14908;DHT22;7545;52.092;7.006;2023-05-07T11:27:35;21.70;99.90
14908;DHT22;7545;52.092;7.006;2023-05-07T11:30:01;21.80;99.90
14908;DHT22;7545;52.092;7.006;2023-05-07T11:32:28;21.80;99.90
14908;DHT22;7545;52.092;7.006;2023-05-07T11:34:55;21.80;99.90
14908;DHT22;7545;52.092;7.006;2023-05-07T11:37:22;21.90;99.90
14908;DHT22;7545;52.092;7.006;2023-05-07T11:39:48;22.00;99.90
14908;DHT22;7545;52.092;7.006;2023-05-07T11:44:55;22.20;99.90
14908;DHT22;7545;52.092;7.006;2023-05-07T11:47:21;22.20;99.90
14908;DHT22;7545;52.092;7.006;2023-05-07T11:49:51;22.30;99.90
14908;DHT22;7545;52.092;7.006;2023-05-07T11:52:18;22.40;99.90
14908;DHT22;7545;52.092;7.006;2023-05-07T11:54:58;22.60;99.90
14908;DHT22;7545;52.092;7.006;2023-05-07T11:57:25;22.60;99.90
14908;DHT22;7545;52.092;7.006;2023-05-07T11:59:58;22.70;99.90
14908;DHT22;7545;52.092;7.006;2023-05-07T12:02:24;22.80;99.90
14908;DHT22;7545;52.092;7.006;2023-05-07T12:04:51;22.80;99.90
14908;DHT22;7545;52.092;7.006;2023-05-07T12:07:17;22.80;99.90
14908;DHT22;7545;52.092;7.006;2023-05-07T12:09:44;22.80;99.90
14908;DHT22;7545;52.092;7.006;2023-05-07T12:12:11;22.80;99.90
14908;DHT22;7545;52.092;7.006;2023-05-07T12:14:41;22.70;99.90
14908;DHT22;7545;52.092;7.006;2023-05-07T12:17:08;22.70;99.90
14908;DHT22;7545;52.092;7.006;2023-05-07T12:19:34;22.70;99.90
14908;DHT22;7545;52.092;7.006;2023-05-07T12:22:04;22.60;99.90
14908;DHT22;7545;52.092;7.006;2023-05-07T12:24:47;22.60;99.90
14908;DHT22;7545;52.092;7.006;2023-05-07T12:27:13;22.60;99.90
14908;DHT22;7545;52.092;7.006;2023-05-07T12:29:40;22.60;99.90
14908;DHT22;7545;52.092;7.006;2023-05-07T12:32:16;22.50;99.90
14908;DHT22;7545;52.092;7.006;2023-05-07T12:34:42;22.60;99.90
14908;DHT22;7545;52.092;7.006;2023-05-07T12:37:08;22.70;99.90
14908;DHT22;7545;52.092;7.006;2023-05-07T12:39:33;22.90;99.90
14908;DHT22;7545;52.092;7.006;2023-05-07T12:41:59;23.00;99.90
14908;DHT22;7545;52.092;7.006;2023-05-07T12:44:30;23.10;99.90
14908;DHT22;7545;52.092;7.006;2023-05-07T12:46:56;23.10;99.90
14908;DHT22;7545;52.092;7.006;2023-05-07T12:49:23;23.20;99.90
14908;DHT22;7545;52.092;7.006;2023-05-07T12:51:50;23.30;99.90
14908;DHT22;7545;52.092;7.006;2023-05-07T12:54:42;23.20;99.90
14908;DHT22;7545;52.092;7.006;2023-05-07T12:57:09;23.20;99.90
14908;DHT22;7545;52.092;7.006;2023-05-07T12:59:40;23.20;99.90
14908;DHT22;7545;52.092;7.006;2023-05-07T13:02:06;23.20;99.90
14908;DHT22;7545;52.092;7.006;2023-05-07T13:04:33;23.10;99.90
14908;DHT22;7545;52.092;7.006;2023-05-07T13:06:59;23.10;99.90
14908;DHT22;7545;52.092;7.006;2023-05-07T13:09:25;23.00;99.90
14908;DHT22;7545;52.092;7.006;2023-05-07T13:11:50;23.00;99.90
14908;DHT22;7545;52.092;7.006;2023-05-07T13:14:16;23.00;99.90
14908;DHT22;7545;52.092;7.006;2023-05-07T13:16:42;23.00;99.90
14908;DHT22;7545;52.092;7.006;2023-05-07T13:19:07;23.00;99.90
14908;DHT22;7545;52.092;7.006;2023-05-07T13:21:33;23.10;99.90
14908;DHT22;7545;52.092;7.006;2023-05-07T13:23:59;23.20;99.90
14908;DHT22;7545;52.092;7.006;2023-05-07T13:26:25;23.30;99.90
14908;DHT22;7545;52.092;7.006;2023-05-07T13:28:51;23.30;99.90
14908;DHT22;7545;52.092;7.006;2023-05-07T13:31:17;23.40;99.90
14908;DHT22;7545;52.092;7.006;2023-05-07T13:33:43;23.50;99.90
14908;DHT22;7545;52.092;7.006;2023-05-07T13:36:08;23.60;99.90
14908;DHT22;7545;52.092;7.006;2023-05-07T13:38:34;23.60;99.90
14908;DHT22;7545;52.092;7.006;2023-05-07T13:41:00;23.50;99.90
14908;DHT22;7545;52.092;7.006;2023-05-07T13:43:26;23.60;99.90
14908;DHT22;7545;52.092;7.006;2023-05-07T13:45:51;23.50;99.90
14908;DHT22;7545;52.092;7.006;2023-05-07T13:48:17;23.50;99.90
14908;DHT22;7545;52.092;7.006;2023-05-07T13:50:43;23.50;99.90
14908;DHT22;7545;52.092;7.006;2023-05-07T13:53:08;23.50;99.90
14908;DHT22;7545;52.092;7.006;2023-05-07T13:55:34;23.50;99.90
14908;DHT22;7545;52.092;7.006;2023-05-07T13:58:01;23.40;99.90
14908;DHT22;7545;52.092;7.006;2023-05-07T14:00:27;23.40;99.90
14908;DHT22;7545;52.092;7.006;2023-05-07T14:02:54;23.30;99.90
14908;DHT22;7545;52.092;7.006;2023-05-07T14:05:20;23.20;99.90
14908;DHT22;7545;52.092;7.006;2023-05-07T14:07:46;23.10;99.90
14908;DHT22;7545;52.092;7.006;2023-05-07T14:10:13;23.00;99.90
14908;DHT22;7545;52.092;7.006;2023-05-07T14:12:38;22.90;99.90
14908;DHT22;7545;52.092;7.006;2023-05-07T14:15:04;22.80;99.90
14908;DHT22;7545;52.092;7.006;2023-05-07T14:17:30;22.80;99.90
14908;DHT22;7545;52.092;7.006;2023-05-07T14:19:55;22.70;99.90
14908;DHT22;7545;52.092;7.006;2023-05-07T14:22:22;22.70;99.90
14908;DHT22;7545;52.092;7.006;2023-05-07T14:24:48;22.60;99.90
14908;DHT22;7545;52.092;7.006;2023-05-07T14:27:14;22.60;99.90
14908;DHT22;7545;52.092;7.006;2023-05-07T14:29:40;22.50;99.90
14908;DHT22;7545;52.092;7.006;2023-05-07T14:32:06;22.40;99.90
14908;DHT22;7545;52.092;7.006;2023-05-07T14:34:31;22.40;99.90
14908;DHT22;7545;52.092;7.006;2023-05-07T14:36:58;22.40;99.90
14908;DHT22;7545;52.092;7.006;2023-05-07T14:39:23;22.40;99.90
14908;DHT22;7545;52.092;7.006;2023-05-07T14:41:49;22.30;99.90
14908;DHT22;7545;52.092;7.006;2023-05-07T14:44:15;22.40;99.90
14908;DHT22;7545;52.092;7.006;2023-05-07T14:46:40;22.30;99.90
14908;DHT22;7545;52.092;7.006;2023-05-07T14:49:06;22.40;99.90
14908;DHT22;7545;52.092;7.006;2023-05-07T14:51:32;22.40;99.90
14908;DHT22;7545;52.092;7.006;2023-05-07T14:53:58;22.40;99.90
14908;DHT22;7545;52.092;7.006;2023-05-07T14:56:24;22.30;99.90
14908;DHT22;7545;52.092;7.006;2023-05-07T14:58:50;22.20;99.90
14908;DHT22;7545;52.092;7.006;2023-05-07T15:01:16;22.20;99.90
14908;DHT22;7545;52.092;7.006;2023-05-07T15:03:42;22.20;99.90
14908;DHT22;7545;52.092;7.006;2023-05-07T15:06:08;22.10;99.90
14908;DHT22;7545;52.092;7.006;2023-05-07T15:08:33;22.10;99.90
14908;DHT22;7545;52.092;7.006;2023-05-07T15:10:59;22.10;99.90
14908;DHT22;7545;52.092;7.006;2023-05-07T15:13:25;22.10;99.90
14908;DHT22;7545;52.092;7.006;2023-05-07T15:15:50;22.00;99.90
14908;DHT22;7545;52.092;7.006;2023-05-07T15:18:16;21.90;99.90
14908;DHT22;7545;52.092;7.006;2023-05-07T15:20:42;21.90;99.90
14908;DHT22;7545;52.092;7.006;2023-05-07T15:23:08;21.90;99.90
14908;DHT22;7545;52.092;7.006;2023-05-07T15:25:38;21.90;99.90
14908;DHT22;7545;52.092;7.006;2023-05-07T15:28:04;21.90;99.90
14908;DHT22;7545;52.092;7.006;2023-05-07T15:30:29;21.80;99.90
14908;DHT22;7545;52.092;7.006;2023-05-07T15:32:55;21.80;99.90
14908;DHT22;7545;52.092;7.006;2023-05-07T15:35:21;21.70;99.90
14908;DHT22;7545;52.092;7.006;2023-05-07T15:37:50;21.70;99.90
14908;DHT22;7545;52.092;7.006;2023-05-07T15:40:16;21.70;99.90
14908;DHT22;7545;52.092;7.006;2023-05-07T15:42:44;21.70;99.90
14908;DHT22;7545;52.092;7.006;2023-05-07T15:45:10;21.70;99.90
14908;DHT22;7545;52.092;7.006;2023-05-07T15:47:36;21.70;99.90
14908;DHT22;7545;52.092;7.006;2023-05-07T15:50:02;21.70;99.90
14908;DHT22;7545;52.092;7.006;2023-05-07T15:52:28;21.70;99.90
14908;DHT22;7545;52.092;7.006;2023-05-07T15:54:54;21.70;99.90
14908;DHT22;7545;52.092;7.006;2023-05-07T15:57:23;21.60;99.90
14908;DHT22;7545;52.092;7.006;2023-05-07T15:59:49;21.60;99.90
14908;DHT22;7545;52.092;7.006;2023-05-07T16:02:15;21.60;99.90
14908;DHT22;7545;52.092;7.006;2023-05-07T16:04:40;21.60;99.90